createdAt,value
2018-01-15T00:01:59.650Z,68.50
2018-01-15T00:04:27.950Z,68.30
2018-01-15T00:06:55.452Z,68.30
2018-01-15T00:09:22.992Z,68.10
2018-01-15T00:11:50.533Z,67.90
2018-01-15T00:14:18.052Z,67.80
2018-01-15T00:16:46.360Z,67.80
2018-01-15T00:19:13.870Z,67.60
2018-01-15T00:21:41.429Z,68.00
2018-01-15T00:24:09.714Z,67.80
2018-01-15T00:26:37.990Z,67.70
2018-01-15T00:29:06.299Z,67.60
2018-01-15T00:31:33.841Z,67.60
2018-01-15T00:34:01.389Z,67.20
2018-01-15T00:36:28.914Z,67.40
2018-01-15T00:38:56.427Z,67.20
2018-01-15T00:41:23.974Z,66.70
2018-01-15T00:43:51.477Z,66.90
2018-01-15T00:46:18.977Z,66.70
2018-01-15T00:48:46.537Z,66.90
2018-01-15T00:51:14.073Z,66.60
2018-01-15T00:53:42.349Z,66.40
2018-01-15T00:56:09.894Z,66.40
2018-01-15T00:58:37.410Z,66.50
2018-01-15T01:01:04.949Z,66.40
2018-01-15T01:03:32.453Z,66.40
2018-01-15T01:06:00.026Z,66.80
2018-01-15T01:08:27.545Z,67.30
2018-01-15T01:10:55.092Z,67.10
2018-01-15T01:13:22.603Z,66.90
2018-01-15T01:15:50.145Z,66.90
2018-01-15T01:18:17.652Z,67.00
2018-01-15T01:20:45.963Z,66.90
2018-01-15T01:23:13.469Z,66.90
2018-01-15T01:25:41.029Z,66.80
2018-01-15T01:28:08.554Z,66.90
2018-01-15T01:30:36.065Z,66.70
2018-01-15T01:33:03.591Z,66.80
2018-01-15T01:35:31.126Z,66.40
2018-01-15T01:37:58.673Z,66.50
2018-01-15T01:40:26.947Z,66.20
2018-01-15T01:42:55.254Z,66.20
2018-01-15T01:45:22.762Z,66.10
2018-01-15T01:47:50.306Z,66.20
2018-01-15T01:50:17.840Z,65.90
2018-01-15T01:52:45.345Z,65.90
2018-01-15T01:55:13.671Z,65.80
2018-01-15T01:57:41.181Z,65.90
2018-01-15T02:00:09.469Z,65.90
2018-01-15T02:02:37.781Z,66.20
2018-01-15T02:05:05.288Z,66.20
2018-01-15T02:07:33.561Z,67.20
2018-01-15T02:10:01.113Z,67.20
2018-01-15T02:12:28.618Z,67.40
2018-01-15T02:14:56.114Z,67.50
2018-01-15T02:17:23.662Z,67.30
2018-01-15T02:19:51.182Z,67.20
2018-01-15T02:22:18.685Z,67.30
2018-01-15T02:24:46.217Z,67.10
2018-01-15T02:27:13.762Z,67.00
2018-01-15T02:29:41.289Z,67.00
2018-01-15T02:32:08.825Z,67.00
2018-01-15T02:34:36.346Z,67.10
2018-01-15T02:37:03.870Z,67.00
2018-01-15T02:39:31.410Z,66.90
2018-01-15T02:41:59.687Z,66.90
2018-01-15T02:44:28.006Z,66.80
2018-01-15T02:46:55.521Z,66.80
2018-01-15T02:49:23.798Z,67.10
2018-01-15T02:51:52.106Z,67.10
2018-01-15T02:54:19.633Z,67.10
2018-01-15T02:56:47.142Z,67.30
2018-01-15T02:59:14.681Z,67.20
2018-01-15T03:01:42.186Z,67.10
2018-01-15T03:04:09.693Z,67.40
2018-01-15T03:06:37.234Z,67.20
2018-01-15T03:09:04.799Z,67.20
2018-01-15T03:11:32.301Z,67.20
2018-01-15T03:13:59.802Z,67.20
2018-01-15T03:16:27.345Z,67.20
2018-01-15T03:18:55.651Z,67.20
2018-01-15T03:21:23.209Z,67.20
2018-01-15T03:23:50.716Z,67.00
2018-01-15T03:26:18.227Z,67.30
2018-01-15T03:28:45.761Z,67.30
2018-01-15T03:31:13.272Z,67.40
2018-01-15T03:33:40.840Z,67.50
2018-01-15T03:36:08.586Z,67.60
2018-01-15T03:38:36.094Z,67.50
2018-01-15T03:41:03.633Z,67.60
2018-01-15T03:43:31.909Z,67.80
2018-01-15T03:46:00.270Z,67.70
2018-01-15T03:48:27.808Z,67.70
2018-01-15T03:50:55.344Z,67.50
2018-01-15T03:53:22.877Z,67.50
2018-01-15T03:55:50.385Z,67.60
2018-01-15T03:58:18.697Z,67.40
2018-01-15T04:00:46.978Z,67.80
2018-01-15T04:03:14.487Z,67.80
2018-01-15T04:05:42.019Z,67.80
2018-01-15T04:08:09.529Z,68.00
2018-01-15T04:10:37.065Z,68.40
2018-01-15T04:13:04.573Z,68.60
2018-01-15T04:15:32.118Z,68.70
2018-01-15T04:17:59.651Z,68.90
2018-01-15T04:20:27.172Z,69.00
2018-01-15T04:22:54.725Z,68.80
2018-01-15T04:25:22.232Z,68.90
2018-01-15T04:27:50.506Z,69.40
2018-01-15T04:30:18.826Z,69.50
2018-01-15T04:32:46.336Z,69.50
2018-01-15T04:35:14.617Z,69.80
2018-01-15T04:37:42.924Z,69.80
2018-01-15T04:40:10.426Z,69.80
2018-01-15T04:42:37.983Z,70.10
2018-01-15T04:45:06.380Z,70.40
2018-01-15T04:47:34.184Z,70.60
2018-01-15T04:50:02.757Z,70.90
2018-01-15T04:52:31.023Z,70.80
2018-01-15T04:54:59.818Z,70.90
2018-01-15T04:57:27.438Z,70.90
2018-01-15T04:59:54.994Z,70.60
2018-01-15T05:02:22.741Z,70.60
2018-01-15T05:04:50.376Z,70.60
2018-01-15T05:07:17.886Z,70.90
2018-01-15T05:09:46.157Z,70.80
2018-01-15T05:12:14.460Z,70.80
2018-01-15T05:14:41.964Z,70.80
2018-01-15T05:17:09.474Z,70.80
2018-01-15T05:19:37.824Z,70.90
2018-01-15T05:22:05.325Z,70.90
2018-01-15T05:24:32.846Z,70.80
2018-01-15T05:27:00.380Z,70.80
2018-01-15T05:29:27.894Z,70.90
2018-01-15T05:31:56.179Z,70.60
2018-01-15T05:34:23.828Z,70.70
2018-01-15T05:36:52.102Z,70.30
2018-01-15T05:39:20.382Z,70.30
2018-01-15T05:41:47.971Z,70.30
2018-01-15T05:44:15.467Z,70.20
2018-01-15T05:46:42.975Z,70.20
2018-01-15T05:49:10.508Z,70.00
2018-01-15T05:51:38.782Z,70.00
2018-01-15T05:54:07.066Z,69.80
2018-01-15T05:56:34.612Z,69.80
2018-01-15T05:59:02.886Z,69.60
2018-01-15T06:01:30.390Z,69.60
2018-01-15T06:03:57.925Z,69.50
2018-01-15T06:06:26.206Z,69.50
2018-01-15T06:08:54.487Z,69.10
2018-01-15T06:11:22.778Z,69.10
2018-01-15T06:13:50.272Z,69.10
2018-01-15T06:16:17.778Z,69.00
2018-01-15T06:18:45.303Z,68.80
2018-01-15T06:21:12.812Z,68.50
2018-01-15T06:23:40.322Z,68.70
2018-01-15T06:26:08.613Z,68.80
2018-01-15T06:28:36.898Z,68.80
2018-01-15T06:31:05.204Z,69.30
2018-01-15T06:33:32.719Z,69.30
2018-01-15T06:36:01.010Z,69.70
2018-01-15T06:38:29.298Z,70.00
2018-01-15T06:40:56.817Z,70.00
2018-01-15T06:43:24.339Z,69.90
2018-01-15T06:45:51.962Z,69.80
2018-01-15T06:48:19.483Z,69.70
2018-01-15T06:50:47.003Z,69.60
2018-01-15T06:53:14.524Z,69.50
2018-01-15T06:55:42.798Z,69.60
2018-01-15T06:58:11.103Z,69.50
2018-01-15T07:00:38.610Z,69.50
2018-01-15T07:03:06.120Z,69.40
2018-01-15T07:05:33.640Z,69.50
2018-01-15T07:08:01.913Z,68.90
2018-01-15T07:10:29.466Z,68.90
2018-01-15T07:12:56.972Z,68.60
2018-01-15T07:15:24.482Z,67.70
2018-01-15T07:17:51.991Z,66.90
2018-01-15T07:20:19.522Z,66.00
2018-01-15T07:22:47.794Z,64.50
2018-01-15T07:25:16.068Z,63.70
2018-01-15T07:27:44.398Z,63.60
2018-01-15T07:30:11.909Z,63.60
2018-01-15T07:32:39.418Z,63.20
2018-01-15T07:35:06.949Z,63.10
2018-01-15T07:37:34.451Z,62.50
2018-01-15T07:40:01.971Z,62.50
2018-01-15T07:42:29.495Z,62.50
2018-01-15T07:44:57.007Z,62.30
2018-01-15T07:47:24.537Z,61.90
2018-01-15T07:49:52.165Z,62.00
2018-01-15T07:52:19.692Z,61.60
2018-01-15T07:54:47.204Z,62.10
2018-01-15T07:57:14.785Z,62.30
2018-01-15T07:59:43.070Z,61.70
2018-01-15T08:02:10.593Z,61.70
2018-01-15T08:04:38.124Z,62.30
2018-01-15T08:07:06.396Z,62.90
2018-01-15T08:09:34.666Z,63.20
2018-01-15T08:12:02.975Z,63.40
2018-01-15T08:14:30.486Z,63.50
2018-01-15T08:16:58.783Z,64.10
2018-01-15T08:19:26.308Z,64.10
2018-01-15T08:21:53.818Z,63.50
2018-01-15T08:24:21.353Z,63.30
2018-01-15T08:26:48.868Z,63.60
2018-01-15T08:29:16.412Z,63.70
2018-01-15T08:31:44.696Z,63.70
2018-01-15T08:34:12.201Z,63.70
2018-01-15T08:36:39.746Z,64.50
2018-01-15T08:39:08.026Z,64.30
2018-01-15T08:41:36.302Z,64.40
2018-01-15T08:44:04.613Z,64.80
2018-01-15T08:46:32.126Z,64.80
2018-01-15T08:48:59.648Z,65.10
2018-01-15T08:51:27.954Z,65.00
2018-01-15T08:53:55.474Z,64.90
2018-01-15T08:56:23.770Z,64.80
2018-01-15T08:58:51.283Z,64.80
2018-01-15T09:01:18.811Z,64.40
2018-01-15T09:03:46.437Z,64.60
2018-01-15T09:06:14.714Z,64.30
2018-01-15T09:08:42.230Z,64.30
2018-01-15T09:11:09.762Z,63.80
2018-01-15T09:13:37.284Z,63.00
2018-01-15T09:16:04.810Z,63.10
2018-01-15T09:18:32.318Z,62.40
2018-01-15T09:21:00.608Z,62.40
2018-01-15T09:23:28.137Z,62.40
2018-01-15T09:25:55.653Z,62.50
2018-01-15T09:28:23.164Z,62.60
2018-01-15T09:30:50.689Z,62.50
2018-01-15T09:33:18.964Z,62.70
2018-01-15T09:35:47.230Z,62.80
2018-01-15T09:38:14.799Z,62.80
2018-01-15T09:40:43.095Z,63.10
2018-01-15T09:43:10.627Z,63.10
2018-01-15T09:45:38.912Z,63.30
2018-01-15T09:48:07.187Z,63.20
2018-01-15T09:50:34.813Z,63.30
2018-01-15T09:53:02.332Z,63.50
2018-01-15T09:55:29.869Z,63.50
2018-01-15T09:57:58.164Z,63.80
2018-01-15T10:00:25.667Z,63.80
2018-01-15T10:02:53.540Z,63.90
2018-01-15T10:05:21.834Z,64.10
2018-01-15T10:07:50.104Z,63.90
2018-01-15T10:10:18.373Z,63.90
2018-01-15T10:12:46.669Z,63.60
2018-01-15T10:15:14.180Z,63.70
2018-01-15T10:17:41.686Z,63.90
2018-01-15T10:20:09.222Z,64.10
2018-01-15T10:22:37.502Z,63.90
2018-01-15T10:25:05.905Z,64.00
2018-01-15T10:27:33.423Z,63.90
2018-01-15T10:30:00.978Z,63.90
2018-01-15T10:32:28.611Z,63.60
2018-01-15T10:34:56.121Z,63.80
2018-01-15T10:37:23.631Z,64.00
2018-01-15T10:39:51.166Z,64.20
2018-01-15T10:42:18.681Z,64.20
2018-01-15T10:44:46.952Z,64.30
2018-01-15T10:47:15.251Z,64.40
2018-01-15T10:49:42.766Z,64.40
2018-01-15T10:52:10.296Z,64.30
2018-01-15T10:54:37.830Z,64.30
2018-01-15T10:57:05.344Z,64.60
2018-01-15T10:59:32.862Z,65.10
2018-01-15T11:02:01.171Z,64.40
2018-01-15T11:04:28.688Z,64.40
2018-01-15T11:06:56.192Z,64.90
2018-01-15T11:09:24.490Z,65.10
2018-01-15T11:11:52.086Z,64.80
2018-01-15T11:14:19.526Z,64.90
2018-01-15T11:16:47.096Z,65.30
2018-01-15T11:19:14.603Z,65.20
2018-01-15T11:21:42.874Z,65.60
2018-01-15T11:24:11.166Z,65.70
2018-01-15T11:26:38.686Z,65.70
2018-01-15T11:29:06.200Z,65.60
2018-01-15T11:31:33.731Z,65.60
2018-01-15T11:34:02.001Z,66.30
2018-01-15T11:36:30.275Z,65.90
2018-01-15T11:38:58.579Z,65.40
2018-01-15T11:41:26.102Z,65.40
2018-01-15T11:43:53.693Z,65.80
2018-01-15T11:46:21.259Z,65.50
2018-01-15T11:48:48.783Z,65.80
2018-01-15T11:51:17.057Z,65.40
2018-01-15T11:53:44.699Z,65.40
2018-01-15T11:56:12.214Z,65.00
2018-01-15T11:58:39.734Z,65.70
2018-01-15T12:01:08.022Z,64.90
2018-01-15T12:03:35.530Z,64.90
2018-01-15T12:06:03.029Z,65.00
2018-01-15T12:08:31.334Z,64.90
2018-01-15T12:10:58.845Z,64.90
2018-01-15T12:13:27.115Z,64.90
2018-01-15T12:15:54.655Z,64.90
2018-01-15T12:18:22.278Z,65.10
2018-01-15T12:20:49.749Z,65.00
2018-01-15T12:23:17.250Z,64.30
2018-01-15T12:25:44.796Z,63.90
2018-01-15T12:28:13.102Z,64.20
2018-01-15T12:30:41.381Z,64.20
2018-01-15T12:33:09.694Z,64.10
2018-01-15T12:35:37.214Z,64.10
2018-01-15T12:38:04.758Z,63.50
2018-01-15T12:40:32.272Z,63.40
2018-01-15T12:43:00.460Z,63.30
2018-01-15T12:45:28.072Z,63.10
2018-01-15T12:47:55.608Z,62.30
2018-01-15T12:50:23.117Z,62.30
2018-01-15T12:52:50.653Z,61.90
2018-01-15T12:55:18.971Z,62.00
2018-01-15T12:57:46.482Z,62.10
2018-01-15T13:00:14.757Z,60.90
2018-01-15T13:02:43.058Z,59.20
2018-01-15T13:05:10.569Z,59.20
2018-01-15T13:07:49.818Z,58.30
2018-01-15T13:10:18.090Z,57.60
2018-01-15T13:12:46.366Z,57.70
2018-01-15T13:15:14.712Z,57.80
2018-01-15T13:17:43.011Z,59.10
2018-01-15T13:20:11.298Z,59.30
2018-01-15T13:22:39.602Z,59.70
2018-01-15T13:25:07.162Z,59.70
2018-01-15T13:27:34.681Z,59.70
2018-01-15T13:30:02.998Z,60.50
2018-01-15T13:32:30.520Z,60.60
2018-01-15T13:34:58.853Z,61.10
2018-01-15T13:37:27.131Z,61.50
2018-01-15T13:39:54.637Z,62.00
2018-01-15T13:42:22.185Z,61.40
2018-01-15T13:44:50.459Z,61.80
2018-01-15T13:47:18.735Z,61.90
2018-01-15T13:49:47.042Z,61.70
2018-01-15T13:52:14.545Z,61.70
2018-01-15T13:54:42.073Z,61.70
2018-01-15T13:57:10.350Z,62.40
2018-01-15T13:59:37.893Z,62.40
2018-01-15T14:02:05.429Z,62.30
2018-01-15T14:04:32.944Z,62.80
2018-01-15T14:07:00.515Z,62.90
2018-01-15T14:09:28.038Z,63.00
2018-01-15T14:11:55.546Z,62.70
2018-01-15T14:14:23.850Z,63.00
2018-01-15T14:16:51.365Z,63.00
2018-01-15T14:19:19.680Z,63.00
2018-01-15T14:21:47.187Z,63.00
2018-01-15T14:24:14.744Z,63.40
2018-01-15T14:26:42.254Z,63.40
2018-01-15T14:29:09.827Z,63.50
2018-01-15T14:31:37.329Z,63.60
2018-01-15T14:34:05.608Z,63.30
2018-01-15T14:36:33.901Z,63.40
2018-01-15T14:39:01.466Z,63.40
2018-01-15T14:41:28.983Z,62.60
2018-01-15T14:43:56.492Z,62.50
2018-01-15T14:46:24.044Z,62.80
2018-01-15T14:48:51.547Z,62.10
2018-01-15T14:51:19.059Z,61.50
2018-01-15T14:53:46.607Z,61.50
2018-01-15T14:56:14.124Z,61.00
2018-01-15T14:58:41.688Z,60.80
2018-01-15T15:01:09.202Z,60.70
2018-01-15T15:03:36.753Z,60.70
2018-01-15T15:06:04.275Z,60.90
2018-01-15T15:08:32.554Z,60.40
2018-01-15T15:11:00.862Z,61.10
2018-01-15T15:13:28.451Z,60.50
2018-01-15T15:15:55.956Z,60.40
2018-01-15T15:18:23.466Z,60.70
2018-01-15T15:20:51.013Z,60.80
2018-01-15T15:23:18.545Z,60.60
2018-01-15T15:25:46.077Z,59.90
2018-01-15T15:28:13.661Z,60.10
2018-01-15T15:30:41.197Z,60.60
2018-01-15T15:33:08.742Z,60.40
2018-01-15T15:41:18.713Z,60.60
2018-01-15T15:43:46.970Z,60.40
2018-01-15T15:46:14.467Z,60.40
2018-01-15T15:48:41.982Z,60.30
2018-01-15T15:51:09.479Z,60.60
2018-01-15T15:53:37.011Z,60.50
2018-01-15T18:56:17.733Z,70.30
2018-01-15T18:58:46.005Z,71.50
2018-01-15T19:01:14.268Z,72.60
2018-01-15T19:03:42.590Z,73.30
2018-01-15T19:06:10.087Z,73.30
2018-01-15T19:08:37.585Z,74.10
2018-01-15T19:11:05.165Z,74.50
2018-01-15T19:13:32.661Z,75.00
2018-01-15T19:16:00.170Z,75.60
2018-01-15T19:18:27.688Z,76.20
2018-01-15T19:20:55.960Z,77.10
2018-01-15T19:23:24.255Z,77.50
2018-01-15T19:25:52.580Z,77.80
2018-01-15T19:28:20.072Z,77.70
2018-01-15T19:30:48.378Z,78.50
2018-01-15T19:33:15.962Z,78.50
2018-01-15T19:38:50.316Z,78.50
2018-01-15T19:44:25.448Z,78.80
2018-01-15T19:46:58.748Z,78.90
2018-01-15T19:49:32.152Z,79.20
2018-01-15T19:52:05.588Z,79.40
2018-01-15T19:54:39.547Z,79.20
2018-01-15T19:57:12.689Z,79.20
2018-01-15T19:59:46.788Z,79.60
2018-01-15T20:02:19.872Z,79.60
2018-01-15T20:04:53.948Z,79.80
2018-01-15T20:07:27.229Z,79.80
2018-01-15T20:10:00.468Z,79.80
2018-01-15T20:12:28.737Z,80.10
2018-01-15T20:14:56.998Z,79.80
2018-01-15T20:17:24.725Z,79.70
2018-01-15T20:19:52.258Z,80.40
2018-01-15T20:22:19.791Z,79.90
2018-01-15T20:24:48.230Z,79.60
2018-01-15T20:27:15.719Z,79.60
2018-01-15T20:29:44.023Z,79.70
2018-01-15T20:32:11.599Z,79.70
2018-01-15T20:34:39.138Z,79.70
2018-01-15T20:37:06.632Z,79.60
2018-01-15T20:39:34.218Z,79.40
2018-01-15T20:42:01.767Z,79.50
2018-01-15T20:44:29.613Z,79.40
2018-01-15T20:46:57.135Z,79.10
2018-01-15T20:49:24.674Z,79.10
2018-01-15T20:51:52.973Z,79.10
2018-01-15T20:54:20.549Z,79.00
2018-01-15T20:56:48.123Z,79.20
2018-01-15T20:59:15.671Z,80.00
2018-01-15T21:01:43.237Z,80.50
2018-01-15T21:04:10.799Z,81.00
2018-01-15T21:06:38.297Z,80.90
2018-01-15T21:09:06.617Z,81.30
2018-01-15T21:11:34.136Z,81.30
2018-01-15T21:14:02.424Z,80.90
2018-01-15T21:16:29.969Z,80.90
2018-01-15T21:18:58.324Z,81.00
2018-01-15T21:21:26.648Z,81.20
2018-01-15T21:23:54.159Z,81.20
2018-01-15T21:26:22.508Z,80.80
2018-01-15T21:28:50.045Z,80.80
2018-01-15T21:31:17.563Z,80.80
2018-01-15T21:33:45.824Z,80.90
2018-01-15T21:36:13.491Z,80.90
2018-01-15T21:38:41.747Z,80.60
2018-01-15T21:41:09.243Z,80.60
2018-01-15T21:43:36.786Z,79.90
2018-01-15T21:46:05.980Z,80.40
2018-01-15T21:48:34.244Z,80.50
2018-01-15T21:51:02.073Z,80.50
2018-01-15T21:53:29.595Z,80.80
2018-01-15T21:55:57.123Z,80.80
2018-01-15T21:58:25.393Z,80.40
2018-01-15T22:00:52.928Z,80.50
2018-01-15T22:03:20.462Z,80.20
2018-01-15T22:05:48.012Z,80.60
2018-01-15T22:08:15.549Z,81.00
2018-01-15T22:10:43.812Z,81.40
2018-01-15T22:13:11.335Z,81.40
2018-01-15T22:15:38.918Z,81.70
2018-01-15T22:18:06.467Z,82.10
2018-01-15T22:20:33.981Z,82.40
2018-01-15T22:23:01.548Z,81.80
2018-01-15T22:25:29.047Z,82.50
2018-01-15T22:27:57.324Z,83.00
2018-01-15T22:30:25.612Z,83.50
2018-01-15T22:32:53.859Z,83.60
2018-01-15T22:35:21.386Z,83.70
2018-01-15T22:37:48.942Z,83.90
2018-01-15T22:40:16.466Z,84.00
2018-01-15T22:42:43.963Z,84.20
2018-01-15T22:45:12.248Z,84.60
2018-01-15T22:47:39.751Z,84.60
2018-01-15T22:50:08.046Z,85.00
2018-01-15T22:52:35.545Z,85.00
2018-01-15T22:55:03.049Z,84.90
2018-01-15T22:57:30.575Z,84.50
2018-01-15T22:59:58.061Z,84.70
2018-01-15T23:02:26.348Z,84.70
2018-01-15T23:04:53.839Z,84.70
2018-01-15T23:07:21.340Z,84.40
2018-01-15T23:09:49.635Z,84.10
2018-01-15T23:12:17.166Z,84.10
2018-01-15T23:14:44.665Z,84.10
2018-01-15T23:17:12.192Z,84.40
2018-01-15T23:19:39.691Z,84.30
2018-01-15T23:22:07.180Z,84.30
2018-01-15T23:24:34.723Z,84.50
2018-01-15T23:27:02.216Z,84.60
2018-01-15T23:29:30.481Z,84.40
2018-01-15T23:31:58.812Z,84.50
2018-01-15T23:34:26.308Z,84.50
2018-01-15T23:36:53.815Z,84.30
2018-01-15T23:39:21.330Z,84.40
2018-01-15T23:41:48.836Z,84.70
2018-01-15T23:44:16.385Z,84.70
2018-01-15T23:46:43.889Z,84.90
2018-01-15T23:49:11.390Z,84.80
2018-01-15T23:51:38.921Z,85.00
2018-01-15T23:54:07.783Z,84.20
2018-01-15T23:56:35.277Z,84.20
2018-01-15T23:59:02.772Z,84.20
